AUI1980 UKOO-UKBB
Flight info
| Callsign | AUI1980 |
|---|---|
| Flight time | 0h 58m |
| Altitude | 30000 |
| Route | VAKOM L83 VAPEL/K0856F360 T219 TEPLO/K0854F350 T219 KONIP |
| Aircraft | B738/M-SDE2E3FGHIRWXY/LB1 |
Departure
| Time | 2026-04-22 20:17 |
|---|---|
| Airport | Odesa International Airport (UKOO) |
Arrival
| Time | 2026-04-22 21:16 |
|---|---|
| Airport | Boryspil International Airport (UKBB) |
| Time | Latitude | Longitude | Altitude | Speed | Heading |
|---|---|---|---|---|---|
| 2026-04-22 20:03 | 46.44160 | 30.67287 | 172 ft | 2 kts | 186° |
| 2026-04-22 20:04 | 46.44177 | 30.67282 | 172 ft | 4 kts | 166° |
| 2026-04-22 20:04 | 46.44200 | 30.67277 | 172 ft | 4 kts | 173° |
| 2026-04-22 20:04 | 46.44223 | 30.67273 | 172 ft | 0 kts | 173° |
| 2026-04-22 20:06 | 46.44203 | 30.67276 | 172 ft | 5 kts | 172° |
| 2026-04-22 20:07 | 46.44166 | 30.67285 | 172 ft | 6 kts | 169° |
| 2026-04-22 20:07 | 46.44101 | 30.67303 | 172 ft | 14 kts | 169° |
| 2026-04-22 20:07 | 46.44003 | 30.67329 | 172 ft | 14 kts | 169° |
| 2026-04-22 20:07 | 46.43934 | 30.67378 | 172 ft | 11 kts | 110° |
| 2026-04-22 20:08 | 46.43932 | 30.67487 | 172 ft | 11 kts | 124° |
| 2026-04-22 20:08 | 46.43862 | 30.67527 | 172 ft | 12 kts | 166° |
| 2026-04-22 20:08 | 46.43754 | 30.67574 | 172 ft | 17 kts | 162° |
| 2026-04-22 20:08 | 46.43643 | 30.67624 | 172 ft | 17 kts | 163° |
| 2026-04-22 20:09 | 46.43534 | 30.67671 | 172 ft | 16 kts | 163° |
| 2026-04-22 20:09 | 46.43430 | 30.67717 | 172 ft | 15 kts | 163° |
| 2026-04-22 20:09 | 46.43330 | 30.67760 | 172 ft | 15 kts | 163° |
| 2026-04-22 20:09 | 46.43213 | 30.67810 | 172 ft | 20 kts | 163° |
| 2026-04-22 20:10 | 46.43084 | 30.67865 | 172 ft | 19 kts | 163° |
| 2026-04-22 20:10 | 46.42960 | 30.67918 | 172 ft | 18 kts | 164° |
| 2026-04-22 20:10 | 46.42839 | 30.67969 | 172 ft | 18 kts | 163° |
| 2026-04-22 20:10 | 46.42722 | 30.68019 | 172 ft | 17 kts | 163° |
| 2026-04-22 20:11 | 46.42610 | 30.68067 | 172 ft | 16 kts | 163° |
| 2026-04-22 20:11 | 46.42503 | 30.68112 | 172 ft | 16 kts | 163° |
| 2026-04-22 20:11 | 46.42399 | 30.68156 | 172 ft | 15 kts | 163° |
| 2026-04-22 20:11 | 46.42300 | 30.68198 | 172 ft | 15 kts | 163° |
| 2026-04-22 20:12 | 46.42204 | 30.68239 | 172 ft | 14 kts | 163° |
| 2026-04-22 20:12 | 46.42113 | 30.68278 | 172 ft | 14 kts | 163° |
| 2026-04-22 20:12 | 46.42051 | 30.68305 | 172 ft | 14 kts | 163° |
| 2026-04-22 20:12 | 46.41931 | 30.68356 | 172 ft | 13 kts | 164° |
| 2026-04-22 20:13 | 46.41842 | 30.68393 | 172 ft | 15 kts | 164° |
| 2026-04-22 20:13 | 46.41740 | 30.68436 | 172 ft | 15 kts | 162° |
| 2026-04-22 20:13 | 46.41641 | 30.68480 | 172 ft | 15 kts | 163° |
| 2026-04-22 20:13 | 46.41566 | 30.68508 | 172 ft | 9 kts | 180° |
| 2026-04-22 20:14 | 46.41533 | 30.68445 | 172 ft | 9 kts | 253° |
| 2026-04-22 20:14 | 46.41510 | 30.68327 | 172 ft | 13 kts | 253° |
| 2026-04-22 20:14 | 46.41487 | 30.68203 | 172 ft | 13 kts | 257° |
| 2026-04-22 20:14 | 46.41466 | 30.68081 | 172 ft | 12 kts | 253° |
| 2026-04-22 20:15 | 46.41442 | 30.67963 | 173 ft | 12 kts | 254° |
| 2026-04-22 20:15 | 46.41438 | 30.67929 | 173 ft | 0 kts | 268° |
| 2026-04-22 20:15 | 46.41438 | 30.67912 | 173 ft | 5 kts | 273° |
| 2026-04-22 20:15 | 46.41454 | 30.67859 | 174 ft | 6 kts | 307° |
| 2026-04-22 20:16 | 46.41486 | 30.67827 | 174 ft | 6 kts | 341° |
| 2026-04-22 20:16 | 46.41556 | 30.67795 | 175 ft | 26 kts | 342° |
| 2026-04-22 20:16 | 46.41864 | 30.67660 | 172 ft | 65 kts | 343° |
| 2026-04-22 20:16 | 46.42400 | 30.67423 | 172 ft | 95 kts | 342° |
| 2026-04-22 20:17 | 46.43220 | 30.67064 | 174 ft | 162 kts | 342° |
| 2026-04-22 20:17 | 46.44470 | 30.66539 | 692 ft | 196 kts | 344° |
| 2026-04-22 20:17 | 46.45782 | 30.66049 | 1979 ft | 191 kts | 345° |
| 2026-04-22 20:17 | 46.47101 | 30.65636 | 3116 ft | 193 kts | 348° |
| 2026-04-22 20:18 | 46.48400 | 30.65319 | 4421 ft | 179 kts | 349° |
| 2026-04-22 20:18 | 46.49587 | 30.65044 | 5772 ft | 170 kts | 348° |
| 2026-04-22 20:18 | 46.50776 | 30.64597 | 6524 ft | 188 kts | 341° |
| 2026-04-22 20:18 | 46.52075 | 30.63836 | 6737 ft | 212 kts | 335° |
| 2026-04-22 20:19 | 46.53486 | 30.62971 | 6991 ft | 231 kts | 338° |
| 2026-04-22 20:19 | 46.55026 | 30.62148 | 7470 ft | 238 kts | 341° |
| 2026-04-22 20:19 | 46.56607 | 30.61380 | 8080 ft | 240 kts | 345° |
| 2026-04-22 20:19 | 46.58271 | 30.61206 | 8685 ft | 242 kts | 3° |
| 2026-04-22 20:20 | 46.59953 | 30.61449 | 9373 ft | 243 kts | 6° |
| 2026-04-22 20:20 | 46.61634 | 30.61766 | 10040 ft | 244 kts | 7° |
| 2026-04-22 20:20 | 46.63327 | 30.62093 | 10596 ft | 247 kts | 7° |
| 2026-04-22 20:20 | 46.65041 | 30.62417 | 11148 ft | 249 kts | 7° |
| 2026-04-22 20:21 | 46.66769 | 30.62735 | 11731 ft | 252 kts | 7° |
| 2026-04-22 20:21 | 46.68515 | 30.63050 | 12294 ft | 254 kts | 7° |
| 2026-04-22 20:21 | 46.70282 | 30.63363 | 12864 ft | 257 kts | 7° |
| 2026-04-22 20:21 | 46.72065 | 30.63676 | 13422 ft | 259 kts | 7° |
| 2026-04-22 20:22 | 46.73864 | 30.63988 | 13950 ft | 262 kts | 7° |
| 2026-04-22 20:22 | 46.75666 | 30.64299 | 14380 ft | 269 kts | 7° |
| 2026-04-22 20:22 | 46.77602 | 30.64631 | 14503 ft | 292 kts | 7° |
| 2026-04-22 20:22 | 46.79702 | 30.64991 | 14685 ft | 315 kts | 7° |
| 2026-04-22 20:23 | 46.81949 | 30.65375 | 14860 ft | 336 kts | 7° |
| 2026-04-22 20:23 | 46.84326 | 30.65781 | 15235 ft | 349 kts | 7° |
| 2026-04-22 20:23 | 46.86758 | 30.66195 | 15884 ft | 353 kts | 7° |
| 2026-04-22 20:23 | 46.89208 | 30.66612 | 16633 ft | 355 kts | 7° |
| 2026-04-22 20:24 | 46.91674 | 30.67032 | 17342 ft | 358 kts | 7° |
| 2026-04-22 20:24 | 46.94129 | 30.67451 | 18013 ft | 361 kts | 7° |
| 2026-04-22 20:24 | 46.96639 | 30.67879 | 18633 ft | 365 kts | 7° |
| 2026-04-22 20:24 | 46.99177 | 30.68313 | 19215 ft | 368 kts | 7° |
| 2026-04-22 20:25 | 47.01728 | 30.68749 | 19796 ft | 371 kts | 7° |
| 2026-04-22 20:25 | 47.04300 | 30.69189 | 20381 ft | 374 kts | 7° |
| 2026-04-22 20:25 | 47.06896 | 30.69634 | 20938 ft | 377 kts | 7° |
| 2026-04-22 20:25 | 47.09516 | 30.70083 | 21499 ft | 380 kts | 7° |
| 2026-04-22 20:26 | 47.12158 | 30.70536 | 22039 ft | 384 kts | 7° |
| 2026-04-22 20:26 | 47.14822 | 30.70994 | 22568 ft | 387 kts | 7° |
| 2026-04-22 20:26 | 47.17510 | 30.71457 | 23077 ft | 390 kts | 7° |
| 2026-04-22 20:26 | 47.20219 | 30.71923 | 23576 ft | 394 kts | 7° |
| 2026-04-22 20:27 | 47.22950 | 30.72394 | 24000 ft | 397 kts | 7° |
| 2026-04-22 20:27 | 47.25704 | 30.72869 | 24410 ft | 400 kts | 7° |
| 2026-04-22 20:27 | 47.28478 | 30.73348 | 24804 ft | 403 kts | 7° |
| 2026-04-22 20:27 | 47.31278 | 30.73832 | 25194 ft | 406 kts | 7° |
| 2026-04-22 20:28 | 47.34092 | 30.74319 | 25583 ft | 409 kts | 7° |
| 2026-04-22 20:28 | 47.36937 | 30.74812 | 25956 ft | 412 kts | 7° |
| 2026-04-22 20:28 | 47.39796 | 30.75308 | 26313 ft | 415 kts | 7° |
| 2026-04-22 20:28 | 47.42637 | 30.75802 | 26691 ft | 418 kts | 7° |
| 2026-04-22 20:29 | 47.45524 | 30.76482 | 27064 ft | 420 kts | 11° |
| 2026-04-22 20:29 | 47.48390 | 30.77437 | 27433 ft | 422 kts | 13° |
| 2026-04-22 20:29 | 47.51244 | 30.78497 | 27851 ft | 423 kts | 14° |
| 2026-04-22 20:29 | 47.54087 | 30.79573 | 28403 ft | 420 kts | 14° |
| 2026-04-22 20:30 | 47.56913 | 30.80627 | 28981 ft | 418 kts | 14° |
| 2026-04-22 20:30 | 47.59731 | 30.81655 | 29487 ft | 417 kts | 14° |
| 2026-04-22 20:30 | 47.62555 | 30.82668 | 29936 ft | 417 kts | 14° |
| 2026-04-22 20:31 | 47.68195 | 30.84662 | 29997 ft | 420 kts | 14° |
| 2026-04-22 20:31 | 47.73825 | 30.86643 | 29991 ft | 412 kts | 14° |
| 2026-04-22 20:32 | 47.79408 | 30.88614 | 29994 ft | 412 kts | 14° |
| 2026-04-22 20:32 | 47.84986 | 30.90589 | 29992 ft | 412 kts | 14° |
| 2026-04-22 20:33 | 47.90563 | 30.92569 | 29987 ft | 411 kts | 14° |
| 2026-04-22 20:33 | 47.96118 | 30.94545 | 29985 ft | 409 kts | 14° |
| 2026-04-22 20:34 | 48.01596 | 30.96497 | 29992 ft | 405 kts | 15° |
| 2026-04-22 20:34 | 48.07091 | 30.98242 | 29978 ft | 402 kts | 11° |
| 2026-04-22 20:35 | 48.12600 | 30.99495 | 29984 ft | 399 kts | 11° |
| 2026-04-22 20:35 | 48.18084 | 31.00693 | 29976 ft | 397 kts | 11° |
| 2026-04-22 20:36 | 48.23528 | 31.01923 | 29974 ft | 394 kts | 11° |
| 2026-04-22 20:36 | 48.28032 | 31.02960 | 29977 ft | 393 kts | 12° |
| 2026-04-22 20:37 | 48.33425 | 31.04214 | 29974 ft | 392 kts | 12° |
| 2026-04-22 20:37 | 48.38803 | 31.05468 | 29966 ft | 391 kts | 12° |
| 2026-04-22 20:38 | 48.44173 | 31.06722 | 29971 ft | 390 kts | 12° |
| 2026-04-22 20:38 | 48.49532 | 31.07976 | 29965 ft | 389 kts | 12° |
| 2026-04-22 20:39 | 48.54851 | 31.09223 | 29965 ft | 389 kts | 12° |
| 2026-04-22 20:39 | 48.60197 | 31.10479 | 29956 ft | 388 kts | 12° |
| 2026-04-22 20:40 | 48.65529 | 31.11735 | 29959 ft | 388 kts | 13° |
| 2026-04-22 20:40 | 48.70858 | 31.12993 | 29950 ft | 387 kts | 13° |
| 2026-04-22 20:41 | 48.76177 | 31.14251 | 29948 ft | 387 kts | 13° |
| 2026-04-22 20:41 | 48.81501 | 31.15512 | 29944 ft | 386 kts | 13° |
| 2026-04-22 20:42 | 48.86809 | 31.16773 | 29942 ft | 386 kts | 13° |
| 2026-04-22 20:42 | 48.92077 | 31.18027 | 29939 ft | 385 kts | 12° |
| 2026-04-22 20:43 | 48.97376 | 31.19292 | 29946 ft | 385 kts | 12° |
| 2026-04-22 20:43 | 49.02678 | 31.20559 | 29932 ft | 386 kts | 12° |
| 2026-04-22 20:44 | 49.07939 | 31.22103 | 29940 ft | 385 kts | 15° |
| 2026-04-22 20:44 | 49.13167 | 31.23953 | 29933 ft | 386 kts | 16° |
| 2026-04-22 20:45 | 49.18411 | 31.25798 | 29930 ft | 388 kts | 15° |
| 2026-04-22 20:45 | 49.23689 | 31.27624 | 29927 ft | 389 kts | 15° |
| 2026-04-22 20:46 | 49.31627 | 31.30363 | 29926 ft | 391 kts | 15° |
| 2026-04-22 20:46 | 49.36910 | 31.32174 | 29917 ft | 392 kts | 14° |
| 2026-04-22 20:47 | 49.42251 | 31.33889 | 29915 ft | 393 kts | 14° |
| 2026-04-22 20:47 | 49.47574 | 31.35581 | 29893 ft | 383 kts | 14° |
| 2026-04-22 20:48 | 49.52725 | 31.37233 | 29908 ft | 375 kts | 14° |
| 2026-04-22 20:48 | 49.57856 | 31.38894 | 29543 ft | 377 kts | 14° |
| 2026-04-22 20:49 | 49.60403 | 31.39718 | 29103 ft | 371 kts | 14° |
| 2026-04-22 20:49 | 49.62876 | 31.40519 | 28703 ft | 365 kts | 14° |
| 2026-04-22 20:49 | 49.65342 | 31.41319 | 28277 ft | 360 kts | 14° |
| 2026-04-22 20:49 | 49.67785 | 31.42113 | 27823 ft | 356 kts | 14° |
| 2026-04-22 20:50 | 49.70199 | 31.42897 | 27371 ft | 353 kts | 14° |
| 2026-04-22 20:50 | 49.72588 | 31.43675 | 26950 ft | 349 kts | 14° |
| 2026-04-22 20:50 | 49.74984 | 31.44223 | 26495 ft | 349 kts | 3° |
| 2026-04-22 20:50 | 49.77407 | 31.43942 | 26076 ft | 349 kts | 356° |
| 2026-04-22 20:51 | 49.79814 | 31.43475 | 25646 ft | 347 kts | 356° |
| 2026-04-22 20:51 | 49.82204 | 31.42994 | 25225 ft | 345 kts | 356° |
| 2026-04-22 20:51 | 49.84580 | 31.42531 | 24807 ft | 343 kts | 356° |
| 2026-04-22 20:51 | 49.86942 | 31.42089 | 24398 ft | 341 kts | 356° |
| 2026-04-22 20:52 | 49.89261 | 31.41668 | 24005 ft | 340 kts | 356° |
| 2026-04-22 20:52 | 49.91611 | 31.41247 | 23602 ft | 338 kts | 356° |
| 2026-04-22 20:52 | 49.93945 | 31.40829 | 23136 ft | 337 kts | 356° |
| 2026-04-22 20:52 | 49.96276 | 31.40435 | 22670 ft | 336 kts | 358° |
| 2026-04-22 20:53 | 49.98601 | 31.40154 | 22206 ft | 334 kts | 358° |
| 2026-04-22 20:53 | 50.00912 | 31.39905 | 21792 ft | 331 kts | 358° |
| 2026-04-22 20:53 | 50.03202 | 31.39649 | 21394 ft | 329 kts | 358° |
| 2026-04-22 20:53 | 50.05475 | 31.39384 | 21001 ft | 326 kts | 358° |
| 2026-04-22 20:54 | 50.07727 | 31.39116 | 20610 ft | 324 kts | 357° |
| 2026-04-22 20:54 | 50.09970 | 31.38847 | 20228 ft | 322 kts | 357° |
| 2026-04-22 20:54 | 50.12196 | 31.38580 | 19839 ft | 320 kts | 357° |
| 2026-04-22 20:54 | 50.14410 | 31.38313 | 19461 ft | 318 kts | 357° |
| 2026-04-22 20:55 | 50.16620 | 31.38047 | 19084 ft | 317 kts | 356° |
| 2026-04-22 20:55 | 50.18784 | 31.37786 | 18700 ft | 315 kts | 356° |
| 2026-04-22 20:55 | 50.20968 | 31.37522 | 18342 ft | 314 kts | 356° |
| 2026-04-22 20:55 | 50.23149 | 31.37259 | 17928 ft | 313 kts | 356° |
| 2026-04-22 20:56 | 50.25317 | 31.36997 | 17519 ft | 312 kts | 356° |
| 2026-04-22 20:56 | 50.27476 | 31.36736 | 17146 ft | 310 kts | 356° |
| 2026-04-22 20:56 | 50.29625 | 31.36476 | 16771 ft | 310 kts | 356° |
| 2026-04-22 20:56 | 50.31783 | 31.36215 | 16402 ft | 312 kts | 356° |
| 2026-04-22 20:57 | 50.33969 | 31.35950 | 16032 ft | 319 kts | 355° |
| 2026-04-22 20:57 | 50.36184 | 31.35553 | 15632 ft | 323 kts | 346° |
| 2026-04-22 20:57 | 50.38210 | 31.34069 | 15261 ft | 322 kts | 325° |
| 2026-04-22 20:57 | 50.39799 | 31.31620 | 14881 ft | 322 kts | 306° |
| 2026-04-22 20:58 | 50.40852 | 31.28526 | 14502 ft | 322 kts | 296° |
| 2026-04-22 20:58 | 50.41745 | 31.25343 | 14305 ft | 314 kts | 295° |
| 2026-04-22 20:58 | 50.42583 | 31.22276 | 14153 ft | 305 kts | 295° |
| 2026-04-22 20:58 | 50.43413 | 31.19268 | 14026 ft | 296 kts | 296° |
| 2026-04-22 20:59 | 50.44232 | 31.16352 | 13904 ft | 287 kts | 296° |
| 2026-04-22 20:59 | 50.45029 | 31.13531 | 13789 ft | 279 kts | 296° |
| 2026-04-22 20:59 | 50.45806 | 31.10788 | 13674 ft | 270 kts | 296° |
| 2026-04-22 20:59 | 50.46558 | 31.08131 | 13554 ft | 262 kts | 296° |
| 2026-04-22 21:00 | 50.47460 | 31.05738 | 13439 ft | 250 kts | 317° |
| 2026-04-22 21:00 | 50.48865 | 31.04260 | 13259 ft | 242 kts | 339° |
| 2026-04-22 21:00 | 50.50461 | 31.03694 | 13061 ft | 237 kts | 356° |
| 2026-04-22 21:00 | 50.52107 | 31.03736 | 12807 ft | 235 kts | 1° |
| 2026-04-22 21:01 | 50.53737 | 31.03883 | 12557 ft | 233 kts | 1° |
| 2026-04-22 21:01 | 50.55356 | 31.04046 | 12305 ft | 232 kts | 1° |
| 2026-04-22 21:01 | 50.56965 | 31.04191 | 12067 ft | 231 kts | 1° |
| 2026-04-22 21:01 | 50.58563 | 31.04322 | 11827 ft | 229 kts | 1° |
| 2026-04-22 21:02 | 50.60154 | 31.04447 | 11571 ft | 229 kts | 0° |
| 2026-04-22 21:02 | 50.61737 | 31.04570 | 11339 ft | 227 kts | 0° |
| 2026-04-22 21:02 | 50.63312 | 31.04690 | 11105 ft | 226 kts | 0° |
| 2026-04-22 21:02 | 50.64883 | 31.04809 | 10863 ft | 225 kts | 0° |
| 2026-04-22 21:03 | 50.66444 | 31.04927 | 10634 ft | 225 kts | 360° |
| 2026-04-22 21:03 | 50.68002 | 31.05045 | 10388 ft | 223 kts | 360° |
| 2026-04-22 21:03 | 50.69550 | 31.05162 | 10159 ft | 222 kts | 359° |
| 2026-04-22 21:03 | 50.71090 | 31.05278 | 9922 ft | 222 kts | 359° |
| 2026-04-22 21:04 | 50.72626 | 31.05393 | 9683 ft | 220 kts | 359° |
| 2026-04-22 21:04 | 50.74153 | 31.05509 | 9515 ft | 216 kts | 359° |
| 2026-04-22 21:04 | 50.75630 | 31.05620 | 9418 ft | 219 kts | 359° |
| 2026-04-22 21:04 | 50.77195 | 31.05735 | 9196 ft | 230 kts | 359° |
| 2026-04-22 21:05 | 50.78797 | 31.05638 | 8900 ft | 230 kts | 341° |
| 2026-04-22 21:05 | 50.80146 | 31.04393 | 8648 ft | 224 kts | 314° |
| 2026-04-22 21:05 | 50.80991 | 31.02346 | 8399 ft | 224 kts | 292° |
| 2026-04-22 21:05 | 50.81290 | 30.99931 | 8164 ft | 225 kts | 278° |
| 2026-04-22 21:06 | 50.81364 | 30.97462 | 7902 ft | 225 kts | 271° |
| 2026-04-22 21:06 | 50.80920 | 30.95081 | 7633 ft | 232 kts | 242° |
| 2026-04-22 21:06 | 50.79766 | 30.93269 | 7400 ft | 239 kts | 214° |
| 2026-04-22 21:06 | 50.78166 | 30.92493 | 7174 ft | 244 kts | 190° |
| 2026-04-22 21:07 | 50.76468 | 30.92308 | 6921 ft | 244 kts | 186° |
| 2026-04-22 21:07 | 50.74768 | 30.92213 | 6674 ft | 244 kts | 185° |
| 2026-04-22 21:07 | 50.73090 | 30.92132 | 6467 ft | 238 kts | 186° |
| 2026-04-22 21:07 | 50.71455 | 30.92033 | 6225 ft | 231 kts | 186° |
| 2026-04-22 21:08 | 50.69870 | 30.91925 | 5957 ft | 225 kts | 187° |
| 2026-04-22 21:08 | 50.68353 | 30.91817 | 5732 ft | 217 kts | 187° |
| 2026-04-22 21:08 | 50.66870 | 30.91710 | 5494 ft | 209 kts | 187° |
| 2026-04-22 21:08 | 50.65443 | 30.91604 | 5283 ft | 201 kts | 187° |
| 2026-04-22 21:09 | 50.64070 | 30.91502 | 5114 ft | 194 kts | 187° |
| 2026-04-22 21:09 | 50.62740 | 30.91403 | 5076 ft | 190 kts | 187° |
| 2026-04-22 21:09 | 50.61424 | 30.91289 | 5066 ft | 189 kts | 191° |
| 2026-04-22 21:09 | 50.60121 | 30.90986 | 5090 ft | 190 kts | 195° |
| 2026-04-22 21:10 | 50.58806 | 30.90632 | 5084 ft | 192 kts | 194° |
| 2026-04-22 21:10 | 50.57497 | 30.90285 | 5058 ft | 190 kts | 195° |
| 2026-04-22 21:10 | 50.56209 | 30.89948 | 5087 ft | 184 kts | 194° |
| 2026-04-22 21:10 | 50.54955 | 30.89703 | 4973 ft | 180 kts | 190° |
| 2026-04-22 21:11 | 50.53718 | 30.89555 | 4621 ft | 178 kts | 188° |
| 2026-04-22 21:11 | 50.52494 | 30.89447 | 4217 ft | 178 kts | 188° |
| 2026-04-22 21:11 | 50.51262 | 30.89351 | 3831 ft | 176 kts | 188° |
| 2026-04-22 21:11 | 50.50057 | 30.89262 | 3428 ft | 172 kts | 188° |
| 2026-04-22 21:12 | 50.48906 | 30.89180 | 3197 ft | 160 kts | 189° |
| 2026-04-22 21:12 | 50.47800 | 30.89097 | 2976 ft | 159 kts | 189° |
| 2026-04-22 21:12 | 50.46711 | 30.89017 | 2787 ft | 152 kts | 190° |
| 2026-04-22 21:12 | 50.45659 | 30.88939 | 2560 ft | 150 kts | 190° |
| 2026-04-22 21:13 | 50.44609 | 30.88859 | 2348 ft | 151 kts | 190° |
| 2026-04-22 21:13 | 50.43558 | 30.88782 | 2139 ft | 150 kts | 190° |
| 2026-04-22 21:13 | 50.42521 | 30.88706 | 1934 ft | 149 kts | 191° |
| 2026-04-22 21:13 | 50.41489 | 30.88629 | 1735 ft | 148 kts | 191° |
| 2026-04-22 21:14 | 50.40463 | 30.88553 | 1529 ft | 147 kts | 191° |
| 2026-04-22 21:14 | 50.39444 | 30.88476 | 1327 ft | 147 kts | 189° |
| 2026-04-22 21:14 | 50.38427 | 30.88402 | 1112 ft | 145 kts | 188° |
| 2026-04-22 21:14 | 50.37423 | 30.88328 | 903 ft | 145 kts | 186° |
| 2026-04-22 21:15 | 50.36421 | 30.88255 | 704 ft | 143 kts | 186° |
| 2026-04-22 21:15 | 50.35438 | 30.88182 | 513 ft | 140 kts | 186° |
| 2026-04-22 21:15 | 50.34501 | 30.88107 | 408 ft | 127 kts | 182° |
| 2026-04-22 21:15 | 50.33783 | 30.88054 | 413 ft | 87 kts | 180° |
| 2026-04-22 21:16 | 50.33328 | 30.88024 | 410 ft | 44 kts | 182° |
| 2026-04-22 21:16 | 50.33062 | 30.88004 | 408 ft | 36 kts | 183° |
| 2026-04-22 21:16 | 50.32847 | 30.87996 | 410 ft | 21 kts | 169° |
| 2026-04-22 21:16 | 50.32738 | 30.88078 | 409 ft | 15 kts | 149° |
| 2026-04-22 21:17 | 50.32663 | 30.88186 | 413 ft | 15 kts | 103° |
| 2026-04-22 21:17 | 50.32660 | 30.88247 | 410 ft | 0 kts | 92° |